sensor_id;sensor_type;location;lat;lon;timestamp;temperature;humidity
3268;DHT22;1646;52.450;13.326;2024-03-07T00:02:32;8.50;99.90
3268;DHT22;1646;52.450;13.326;2024-03-07T00:07:33;8.50;99.90
3268;DHT22;1646;52.450;13.326;2024-03-07T00:12:31;8.50;99.90
3268;DHT22;1646;52.450;13.326;2024-03-07T00:17:30;8.60;99.90
3268;DHT22;1646;52.450;13.326;2024-03-07T00:22:28;8.60;99.90
3268;DHT22;1646;52.450;13.326;2024-03-07T00:27:28;8.70;99.90
3268;DHT22;1646;52.450;13.326;2024-03-07T00:32:26;8.70;99.90
3268;DHT22;1646;52.450;13.326;2024-03-07T00:37:27;8.70;99.90
3268;DHT22;1646;52.450;13.326;2024-03-07T00:42:25;8.70;99.90
3268;DHT22;1646;52.450;13.326;2024-03-07T00:47:25;8.70;99.90
3268;DHT22;1646;52.450;13.326;2024-03-07T00:52:24;8.70;99.90
3268;DHT22;1646;52.450;13.326;2024-03-07T00:57:23;8.60;99.90
3268;DHT22;1646;52.450;13.326;2024-03-07T01:02:21;8.60;99.90
3268;DHT22;1646;52.450;13.326;2024-03-07T01:07:21;8.60;99.90
3268;DHT22;1646;52.450;13.326;2024-03-07T01:12:20;8.60;99.90
3268;DHT22;1646;52.450;13.326;2024-03-07T01:17:21;8.60;99.90
3268;DHT22;1646;52.450;13.326;2024-03-07T01:22:22;8.60;99.90
3268;DHT22;1646;52.450;13.326;2024-03-07T01:27:20;8.50;99.90
3268;DHT22;1646;52.450;13.326;2024-03-07T01:32:21;8.60;99.90
3268;DHT22;1646;52.450;13.326;2024-03-07T01:37:21;8.50;99.90
3268;DHT22;1646;52.450;13.326;2024-03-07T01:42:19;8.40;99.90
3268;DHT22;1646;52.450;13.326;2024-03-07T01:47:17;8.30;99.90
3268;DHT22;1646;52.450;13.326;2024-03-07T01:52:17;8.20;99.90
3268;DHT22;1646;52.450;13.326;2024-03-07T01:57:18;8.10;99.90
3268;DHT22;1646;52.450;13.326;2024-03-07T02:02:16;8.10;99.90
3268;DHT22;1646;52.450;13.326;2024-03-07T02:07:14;8.10;99.90
3268;DHT22;1646;52.450;13.326;2024-03-07T02:12:13;8.00;99.90
3268;DHT22;1646;52.450;13.326;2024-03-07T02:17:12;7.90;99.90
3268;DHT22;1646;52.450;13.326;2024-03-07T02:22:13;7.90;99.90
3268;DHT22;1646;52.450;13.326;2024-03-07T02:27:11;7.80;99.90
3268;DHT22;1646;52.450;13.326;2024-03-07T02:32:11;7.80;99.90
3268;DHT22;1646;52.450;13.326;2024-03-07T02:37:10;7.80;99.90
3268;DHT22;1646;52.450;13.326;2024-03-07T02:42:10;7.70;99.90
3268;DHT22;1646;52.450;13.326;2024-03-07T02:47:09;7.70;99.90
3268;DHT22;1646;52.450;13.326;2024-03-07T02:52:07;7.70;99.90
3268;DHT22;1646;52.450;13.326;2024-03-07T02:57:05;7.70;99.90
3268;DHT22;1646;52.450;13.326;2024-03-07T03:02:05;7.70;99.90
3268;DHT22;1646;52.450;13.326;2024-03-07T03:07:04;7.70;99.90
3268;DHT22;1646;52.450;13.326;2024-03-07T03:12:02;7.60;99.90
3268;DHT22;1646;52.450;13.326;2024-03-07T03:17:00;7.60;99.90
3268;DHT22;1646;52.450;13.326;2024-03-07T03:22:01;7.50;99.90
3268;DHT22;1646;52.450;13.326;2024-03-07T03:27:00;7.50;99.90
3268;DHT22;1646;52.450;13.326;2024-03-07T03:31:58;7.50;99.90
3268;DHT22;1646;52.450;13.326;2024-03-07T03:36:57;7.50;99.90
3268;DHT22;1646;52.450;13.326;2024-03-07T03:41:56;7.40;99.90
3268;DHT22;1646;52.450;13.326;2024-03-07T03:46:55;7.40;99.90
3268;DHT22;1646;52.450;13.326;2024-03-07T03:51:53;7.30;99.90
3268;DHT22;1646;52.450;13.326;2024-03-07T03:56:51;7.30;99.90
3268;DHT22;1646;52.450;13.326;2024-03-07T04:01:51;7.30;99.90
3268;DHT22;1646;52.450;13.326;2024-03-07T04:06:49;7.20;99.90
3268;DHT22;1646;52.450;13.326;2024-03-07T04:11:47;7.20;99.90
3268;DHT22;1646;52.450;13.326;2024-03-07T04:16:46;7.10;99.90
3268;DHT22;1646;52.450;13.326;2024-03-07T04:21:46;6.90;99.90
3268;DHT22;1646;52.450;13.326;2024-03-07T04:26:44;6.80;99.90
3268;DHT22;1646;52.450;13.326;2024-03-07T04:31:43;6.80;99.90
3268;DHT22;1646;52.450;13.326;2024-03-07T04:36:41;6.70;99.90
3268;DHT22;1646;52.450;13.326;2024-03-07T04:41:41;6.60;99.90
3268;DHT22;1646;52.450;13.326;2024-03-07T04:46:39;6.50;99.90
3268;DHT22;1646;52.450;13.326;2024-03-07T04:51:39;6.50;99.90
3268;DHT22;1646;52.450;13.326;2024-03-07T04:56:38;6.40;99.90
3268;DHT22;1646;52.450;13.326;2024-03-07T05:01:37;6.40;99.90
3268;DHT22;1646;52.450;13.326;2024-03-07T05:06:36;6.40;99.90
3268;DHT22;1646;52.450;13.326;2024-03-07T05:11:35;6.30;99.90
3268;DHT22;1646;52.450;13.326;2024-03-07T05:16:34;6.30;99.90
3268;DHT22;1646;52.450;13.326;2024-03-07T05:21:34;6.20;99.90
3268;DHT22;1646;52.450;13.326;2024-03-07T05:26:34;6.20;99.90
3268;DHT22;1646;52.450;13.326;2024-03-07T05:31:37;6.10;99.90
3268;DHT22;1646;52.450;13.326;2024-03-07T05:36:37;6.10;99.90
3268;DHT22;1646;52.450;13.326;2024-03-07T05:41:41;6.00;99.90
3268;DHT22;1646;52.450;13.326;2024-03-07T05:46:40;6.00;99.90
3268;DHT22;1646;52.450;13.326;2024-03-07T05:51:44;6.00;99.90
3268;DHT22;1646;52.450;13.326;2024-03-07T05:56:42;6.00;99.90
3268;DHT22;1646;52.450;13.326;2024-03-07T06:01:41;6.00;99.90
3268;DHT22;1646;52.450;13.326;2024-03-07T06:06:39;6.00;99.90
3268;DHT22;1646;52.450;13.326;2024-03-07T06:11:40;6.00;99.90
3268;DHT22;1646;52.450;13.326;2024-03-07T06:16:40;6.00;99.90
3268;DHT22;1646;52.450;13.326;2024-03-07T06:21:39;6.00;99.90
3268;DHT22;1646;52.450;13.326;2024-03-07T06:26:40;6.10;99.90
3268;DHT22;1646;52.450;13.326;2024-03-07T06:31:46;6.10;99.90
3268;DHT22;1646;52.450;13.326;2024-03-07T06:36:44;6.00;99.90
3268;DHT22;1646;52.450;13.326;2024-03-07T06:41:44;6.10;99.90
3268;DHT22;1646;52.450;13.326;2024-03-07T06:46:44;6.10;99.90
3268;DHT22;1646;52.450;13.326;2024-03-07T06:51:42;6.10;99.90
3268;DHT22;1646;52.450;13.326;2024-03-07T06:56:41;6.10;99.90
3268;DHT22;1646;52.450;13.326;2024-03-07T07:01:42;6.30;99.90
3268;DHT22;1646;52.450;13.326;2024-03-07T07:06:40;6.40;99.90
3268;DHT22;1646;52.450;13.326;2024-03-07T07:11:40;6.50;99.90
3268;DHT22;1646;52.450;13.326;2024-03-07T07:16:42;6.60;99.90
3268;DHT22;1646;52.450;13.326;2024-03-07T07:21:43;6.70;99.90
3268;DHT22;1646;52.450;13.326;2024-03-07T07:26:41;6.70;99.90
3268;DHT22;1646;52.450;13.326;2024-03-07T07:31:39;6.70;99.90
3268;DHT22;1646;52.450;13.326;2024-03-07T07:36:39;6.80;99.90
3268;DHT22;1646;52.450;13.326;2024-03-07T07:41:37;6.90;99.90
3268;DHT22;1646;52.450;13.326;2024-03-07T07:46:35;7.00;99.90
3268;DHT22;1646;52.450;13.326;2024-03-07T07:51:34;7.10;99.90
3268;DHT22;1646;52.450;13.326;2024-03-07T07:56:33;7.30;99.90
3268;DHT22;1646;52.450;13.326;2024-03-07T08:01:33;7.50;99.90
3268;DHT22;1646;52.450;13.326;2024-03-07T08:06:32;7.60;99.90
3268;DHT22;1646;52.450;13.326;2024-03-07T08:11:30;7.80;99.90
3268;DHT22;1646;52.450;13.326;2024-03-07T08:16:30;8.00;99.90
3268;DHT22;1646;52.450;13.326;2024-03-07T08:21:29;8.20;99.90
3268;DHT22;1646;52.450;13.326;2024-03-07T08:26:29;8.70;99.90
3268;DHT22;1646;52.450;13.326;2024-03-07T08:31:30;9.50;99.90
3268;DHT22;1646;52.450;13.326;2024-03-07T08:36:29;10.20;99.90
3268;DHT22;1646;52.450;13.326;2024-03-07T08:41:27;10.50;99.90
3268;DHT22;1646;52.450;13.326;2024-03-07T08:46:26;11.00;99.90
3268;DHT22;1646;52.450;13.326;2024-03-07T08:51:26;12.00;99.90
3268;DHT22;1646;52.450;13.326;2024-03-07T08:56:24;12.90;99.90
3268;DHT22;1646;52.450;13.326;2024-03-07T09:01:23;13.20;99.90
3268;DHT22;1646;52.450;13.326;2024-03-07T09:06:22;14.10;99.90
3268;DHT22;1646;52.450;13.326;2024-03-07T09:11:22;14.90;99.90
3268;DHT22;1646;52.450;13.326;2024-03-07T09:16:21;15.70;99.90
3268;DHT22;1646;52.450;13.326;2024-03-07T09:21:20;16.30;96.80
3268;DHT22;1646;52.450;13.326;2024-03-07T09:26:18;17.40;94.70
3268;DHT22;1646;52.450;13.326;2024-03-07T09:31:19;16.90;88.00
3268;DHT22;1646;52.450;13.326;2024-03-07T09:36:18;17.00;89.30
3268;DHT22;1646;52.450;13.326;2024-03-07T09:41:16;16.80;87.80
3268;DHT22;1646;52.450;13.326;2024-03-07T09:46:14;17.70;86.40
3268;DHT22;1646;52.450;13.326;2024-03-07T09:51:15;19.00;82.70
3268;DHT22;1646;52.450;13.326;2024-03-07T09:56:17;18.10;71.10
3268;DHT22;1646;52.450;13.326;2024-03-07T10:01:20;18.70;70.00
3268;DHT22;1646;52.450;13.326;2024-03-07T10:06:20;18.50;62.50
3268;DHT22;1646;52.450;13.326;2024-03-07T10:11:19;18.80;64.10
3268;DHT22;1646;52.450;13.326;2024-03-07T10:16:18;19.80;62.30
3268;DHT22;1646;52.450;13.326;2024-03-07T10:21:20;20.70;58.30
3268;DHT22;1646;52.450;13.326;2024-03-07T10:26:21;21.30;58.30
3268;DHT22;1646;52.450;13.326;2024-03-07T10:31:28;22.70;55.50
3268;DHT22;1646;52.450;13.326;2024-03-07T10:36:28;22.90;51.70
3268;DHT22;1646;52.450;13.326;2024-03-07T10:41:28;22.60;50.10
3268;DHT22;1646;52.450;13.326;2024-03-07T10:46:28;23.10;49.20
3268;DHT22;1646;52.450;13.326;2024-03-07T10:51:32;23.60;50.30
3268;DHT22;1646;52.450;13.326;2024-03-07T10:56:41;24.50;48.50
3268;DHT22;1646;52.450;13.326;2024-03-07T11:01:47;24.60;44.20
3268;DHT22;1646;52.450;13.326;2024-03-07T11:06:52;23.30;43.70
3268;DHT22;1646;52.450;13.326;2024-03-07T11:11:51;23.40;43.50
3268;DHT22;1646;52.450;13.326;2024-03-07T11:16:50;23.70;44.30
3268;DHT22;1646;52.450;13.326;2024-03-07T11:21:49;24.90;42.80
3268;DHT22;1646;52.450;13.326;2024-03-07T11:26:50;24.40;42.40
3268;DHT22;1646;52.450;13.326;2024-03-07T11:31:53;24.00;41.80
3268;DHT22;1646;52.450;13.326;2024-03-07T11:36:51;23.70;42.10
3268;DHT22;1646;52.450;13.326;2024-03-07T11:41:54;22.60;41.10
3268;DHT22;1646;52.450;13.326;2024-03-07T11:46:52;21.20;40.90
3268;DHT22;1646;52.450;13.326;2024-03-07T11:51:50;19.60;44.30
3268;DHT22;1646;52.450;13.326;2024-03-07T11:56:49;18.30;44.70
3268;DHT22;1646;52.450;13.326;2024-03-07T12:01:50;17.30;46.80
3268;DHT22;1646;52.450;13.326;2024-03-07T12:06:51;16.70;46.90
3268;DHT22;1646;52.450;13.326;2024-03-07T12:11:50;16.30;48.50
3268;DHT22;1646;52.450;13.326;2024-03-07T12:16:51;16.00;49.20
3268;DHT22;1646;52.450;13.326;2024-03-07T12:21:49;15.80;50.20
3268;DHT22;1646;52.450;13.326;2024-03-07T12:26:48;15.50;49.30
3268;DHT22;1646;52.450;13.326;2024-03-07T12:31:46;15.30;50.30
3268;DHT22;1646;52.450;13.326;2024-03-07T12:36:46;15.20;50.70
3268;DHT22;1646;52.450;13.326;2024-03-07T12:41:45;15.30;51.40
3268;DHT22;1646;52.450;13.326;2024-03-07T12:46:46;15.30;52.20
3268;DHT22;1646;52.450;13.326;2024-03-07T12:51:44;15.30;50.30
3268;DHT22;1646;52.450;13.326;2024-03-07T12:56:44;15.00;50.20
3268;DHT22;1646;52.450;13.326;2024-03-07T13:01:43;14.70;52.50
3268;DHT22;1646;52.450;13.326;2024-03-07T13:06:44;14.60;50.50
3268;DHT22;1646;52.450;13.326;2024-03-07T13:11:45;14.10;50.40
3268;DHT22;1646;52.450;13.326;2024-03-07T13:16:45;13.90;53.00
3268;DHT22;1646;52.450;13.326;2024-03-07T13:21:44;13.90;51.50
3268;DHT22;1646;52.450;13.326;2024-03-07T13:26:43;13.50;49.00
3268;DHT22;1646;52.450;13.326;2024-03-07T13:31:44;13.10;49.80
3268;DHT22;1646;52.450;13.326;2024-03-07T13:36:44;12.60;48.80
3268;DHT22;1646;52.450;13.326;2024-03-07T13:41:42;12.20;48.80
3268;DHT22;1646;52.450;13.326;2024-03-07T13:46:41;11.90;48.90
3268;DHT22;1646;52.450;13.326;2024-03-07T13:51:42;11.70;49.70
3268;DHT22;1646;52.450;13.326;2024-03-07T13:56:54;11.70;50.20
3268;DHT22;1646;52.450;13.326;2024-03-07T14:02:02;11.70;50.90
3268;DHT22;1646;52.450;13.326;2024-03-07T14:07:26;11.80;50.60
3268;DHT22;1646;52.450;13.326;2024-03-07T14:12:51;11.90;51.40
3268;DHT22;1646;52.450;13.326;2024-03-07T14:23:34;12.10;51.60
3268;DHT22;1646;52.450;13.326;2024-03-07T14:29:00;11.70;49.90
3268;DHT22;1646;52.450;13.326;2024-03-07T14:34:08;11.50;51.20
3268;DHT22;1646;52.450;13.326;2024-03-07T14:39:11;11.60;51.60
3268;DHT22;1646;52.450;13.326;2024-03-07T14:44:11;11.80;51.40
3268;DHT22;1646;52.450;13.326;2024-03-07T14:49:12;11.80;50.50
3268;DHT22;1646;52.450;13.326;2024-03-07T14:54:14;11.70;51.20
3268;DHT22;1646;52.450;13.326;2024-03-07T14:59:12;11.60;51.40
3268;DHT22;1646;52.450;13.326;2024-03-07T15:04:10;11.90;52.30
3268;DHT22;1646;52.450;13.326;2024-03-07T15:09:09;12.80;51.90
3268;DHT22;1646;52.450;13.326;2024-03-07T15:14:09;13.60;51.20
3268;DHT22;1646;52.450;13.326;2024-03-07T15:19:08;14.30;51.10
3268;DHT22;1646;52.450;13.326;2024-03-07T15:24:07;15.40;51.10
3268;DHT22;1646;52.450;13.326;2024-03-07T15:29:06;16.80;49.80
3268;DHT22;1646;52.450;13.326;2024-03-07T15:34:06;17.80;48.10
3268;DHT22;1646;52.450;13.326;2024-03-07T15:39:06;18.40;47.70
3268;DHT22;1646;52.450;13.326;2024-03-07T15:44:17;18.30;46.40
3268;DHT22;1646;52.450;13.326;2024-03-07T15:49:18;18.50;45.70
3268;DHT22;1646;52.450;13.326;2024-03-07T15:54:17;18.80;46.50
3268;DHT22;1646;52.450;13.326;2024-03-07T15:59:16;18.70;46.20
3268;DHT22;1646;52.450;13.326;2024-03-07T16:04:15;19.20;46.60
3268;DHT22;1646;52.450;13.326;2024-03-07T16:09:15;18.70;45.80
3268;DHT22;1646;52.450;13.326;2024-03-07T16:14:20;17.20;45.70
3268;DHT22;1646;52.450;13.326;2024-03-07T16:19:18;15.50;46.10
3268;DHT22;1646;52.450;13.326;2024-03-07T16:24:20;14.00;47.40
3268;DHT22;1646;52.450;13.326;2024-03-07T16:29:19;12.90;48.60
3268;DHT22;1646;52.450;13.326;2024-03-07T16:34:17;12.00;49.50
3268;DHT22;1646;52.450;13.326;2024-03-07T16:39:15;11.40;50.20
3268;DHT22;1646;52.450;13.326;2024-03-07T16:44:15;11.00;50.50
3268;DHT22;1646;52.450;13.326;2024-03-07T16:49:14;10.60;52.00
3268;DHT22;1646;52.450;13.326;2024-03-07T16:54:12;10.40;52.20
3268;DHT22;1646;52.450;13.326;2024-03-07T16:59:11;10.10;52.10
3268;DHT22;1646;52.450;13.326;2024-03-07T17:04:11;9.80;54.90
3268;DHT22;1646;52.450;13.326;2024-03-07T17:09:09;9.70;54.40
3268;DHT22;1646;52.450;13.326;2024-03-07T17:14:09;9.50;54.20
3268;DHT22;1646;52.450;13.326;2024-03-07T17:19:12;9.40;54.30
3268;DHT22;1646;52.450;13.326;2024-03-07T17:24:10;9.30;55.80
3268;DHT22;1646;52.450;13.326;2024-03-07T17:29:13;9.20;56.00
3268;DHT22;1646;52.450;13.326;2024-03-07T17:34:13;9.10;56.20
3268;DHT22;1646;52.450;13.326;2024-03-07T17:39:12;9.10;56.20
3268;DHT22;1646;52.450;13.326;2024-03-07T17:44:11;9.00;56.80
3268;DHT22;1646;52.450;13.326;2024-03-07T17:49:15;8.90;56.70
3268;DHT22;1646;52.450;13.326;2024-03-07T17:54:15;8.80;56.30
3268;DHT22;1646;52.450;13.326;2024-03-07T17:59:15;8.80;57.10
3268;DHT22;1646;52.450;13.326;2024-03-07T18:04:19;8.80;56.90
3268;DHT22;1646;52.450;13.326;2024-03-07T18:09:21;8.70;56.90
3268;DHT22;1646;52.450;13.326;2024-03-07T18:14:25;8.60;57.50
3268;DHT22;1646;52.450;13.326;2024-03-07T18:19:31;8.60;57.60
3268;DHT22;1646;52.450;13.326;2024-03-07T18:24:31;8.60;57.30
3268;DHT22;1646;52.450;13.326;2024-03-07T18:29:29;8.50;57.70
3268;DHT22;1646;52.450;13.326;2024-03-07T18:34:31;8.50;58.20
3268;DHT22;1646;52.450;13.326;2024-03-07T18:39:32;8.40;58.60
3268;DHT22;1646;52.450;13.326;2024-03-07T18:44:32;8.40;59.00
3268;DHT22;1646;52.450;13.326;2024-03-07T18:49:35;8.30;58.80
3268;DHT22;1646;52.450;13.326;2024-03-07T18:54:35;8.20;59.20
3268;DHT22;1646;52.450;13.326;2024-03-07T18:59:35;8.20;59.80
3268;DHT22;1646;52.450;13.326;2024-03-07T19:04:36;8.10;59.50
3268;DHT22;1646;52.450;13.326;2024-03-07T19:09:39;8.20;60.10
3268;DHT22;1646;52.450;13.326;2024-03-07T19:14:37;8.00;60.80
3268;DHT22;1646;52.450;13.326;2024-03-07T19:19:37;7.90;60.60
3268;DHT22;1646;52.450;13.326;2024-03-07T19:24:36;7.90;61.10
3268;DHT22;1646;52.450;13.326;2024-03-07T19:29:36;7.80;61.30
3268;DHT22;1646;52.450;13.326;2024-03-07T19:34:38;7.70;61.70
3268;DHT22;1646;52.450;13.326;2024-03-07T19:39:37;7.70;61.20
3268;DHT22;1646;52.450;13.326;2024-03-07T19:44:38;7.60;63.00
3268;DHT22;1646;52.450;13.326;2024-03-07T19:49:38;7.50;63.30
3268;DHT22;1646;52.450;13.326;2024-03-07T19:54:37;7.50;62.60
3268;DHT22;1646;52.450;13.326;2024-03-07T19:59:36;7.40;64.70
3268;DHT22;1646;52.450;13.326;2024-03-07T20:04:36;7.30;64.20
3268;DHT22;1646;52.450;13.326;2024-03-07T20:09:37;7.20;64.20
3268;DHT22;1646;52.450;13.326;2024-03-07T20:14:35;7.10;65.40
3268;DHT22;1646;52.450;13.326;2024-03-07T20:19:35;7.10;66.70
3268;DHT22;1646;52.450;13.326;2024-03-07T20:24:34;7.00;67.40
3268;DHT22;1646;52.450;13.326;2024-03-07T20:29:34;7.00;67.80
3268;DHT22;1646;52.450;13.326;2024-03-07T20:34:32;7.00;68.50
3268;DHT22;1646;52.450;13.326;2024-03-07T20:39:30;7.00;70.10
3268;DHT22;1646;52.450;13.326;2024-03-07T20:44:31;6.90;69.70
3268;DHT22;1646;52.450;13.326;2024-03-07T20:49:31;6.90;69.30
3268;DHT22;1646;52.450;13.326;2024-03-07T20:54:29;6.80;70.40
3268;DHT22;1646;52.450;13.326;2024-03-07T20:59:27;6.80;70.60
3268;DHT22;1646;52.450;13.326;2024-03-07T21:04:28;6.70;71.00
3268;DHT22;1646;52.450;13.326;2024-03-07T21:09:27;6.70;72.00
3268;DHT22;1646;52.450;13.326;2024-03-07T21:14:26;6.60;73.00
3268;DHT22;1646;52.450;13.326;2024-03-07T21:19:27;6.60;71.90
3268;DHT22;1646;52.450;13.326;2024-03-07T21:24:27;6.50;72.80
3268;DHT22;1646;52.450;13.326;2024-03-07T21:29:27;6.50;74.40
3268;DHT22;1646;52.450;13.326;2024-03-07T21:34:26;6.60;74.40
3268;DHT22;1646;52.450;13.326;2024-03-07T21:39:27;6.50;75.80
3268;DHT22;1646;52.450;13.326;2024-03-07T21:44:25;6.40;77.70
3268;DHT22;1646;52.450;13.326;2024-03-07T21:49:24;6.20;78.70
3268;DHT22;1646;52.450;13.326;2024-03-07T21:54:22;6.10;79.80
3268;DHT22;1646;52.450;13.326;2024-03-07T21:59:22;6.10;82.80
3268;DHT22;1646;52.450;13.326;2024-03-07T22:04:20;5.90;85.20
3268;DHT22;1646;52.450;13.326;2024-03-07T22:09:22;5.70;85.00
3268;DHT22;1646;52.450;13.326;2024-03-07T22:14:22;5.70;86.80
3268;DHT22;1646;52.450;13.326;2024-03-07T22:19:20;5.70;87.50
3268;DHT22;1646;52.450;13.326;2024-03-07T22:24:18;5.70;88.20
3268;DHT22;1646;52.450;13.326;2024-03-07T22:29:17;5.80;86.60
3268;DHT22;1646;52.450;13.326;2024-03-07T22:34:16;5.90;85.30
3268;DHT22;1646;52.450;13.326;2024-03-07T22:39:15;5.90;86.50
3268;DHT22;1646;52.450;13.326;2024-03-07T22:44:15;6.00;86.20
3268;DHT22;1646;52.450;13.326;2024-03-07T22:49:13;5.80;85.50
3268;DHT22;1646;52.450;13.326;2024-03-07T22:54:13;5.80;88.70
3268;DHT22;1646;52.450;13.326;2024-03-07T22:59:12;5.80;85.90
3268;DHT22;1646;52.450;13.326;2024-03-07T23:04:10;5.80;86.40
3268;DHT22;1646;52.450;13.326;2024-03-07T23:09:10;5.80;86.10
3268;DHT22;1646;52.450;13.326;2024-03-07T23:14:10;5.80;85.60
3268;DHT22;1646;52.450;13.326;2024-03-07T23:19:08;5.70;85.40
3268;DHT22;1646;52.450;13.326;2024-03-07T23:24:08;5.50;85.80
3268;DHT22;1646;52.450;13.326;2024-03-07T23:29:07;5.40;85.20
3268;DHT22;1646;52.450;13.326;2024-03-07T23:34:07;5.30;85.00
3268;DHT22;1646;52.450;13.326;2024-03-07T23:39:05;5.20;85.70
3268;DHT22;1646;52.450;13.326;2024-03-07T23:44:03;5.10;85.60
3268;DHT22;1646;52.450;13.326;2024-03-07T23:49:02;5.10;85.50
3268;DHT22;1646;52.450;13.326;2024-03-07T23:54:01;5.00;85.80
3268;DHT22;1646;52.450;13.326;2024-03-07T23:59:02;5.00;87.70
